sensor_id;sensor_type;location;lat;lon;timestamp;pressure;altitude;pressure_sealevel;temperature;humidity
15487;BME280;7845;53.698;10.078;2023-06-10T00:01:46;101609.97;;;19.19;100.00
15487;BME280;7845;53.698;10.078;2023-06-10T00:04:15;101609.81;;;19.24;100.00
15487;BME280;7845;53.698;10.078;2023-06-10T00:06:43;101613.75;;;19.11;100.00
15487;BME280;7845;53.698;10.078;2023-06-10T00:09:09;101608.53;;;19.08;100.00
15487;BME280;7845;53.698;10.078;2023-06-10T00:11:35;101614.41;;;18.88;100.00
15487;BME280;7845;53.698;10.078;2023-06-10T00:14:01;101614.38;;;18.90;100.00
15487;BME280;7845;53.698;10.078;2023-06-10T00:16:29;101609.63;;;19.01;100.00
15487;BME280;7845;53.698;10.078;2023-06-10T00:18:55;101616.47;;;19.08;100.00
15487;BME280;7845;53.698;10.078;2023-06-10T00:21:28;101616.75;;;18.99;100.00
15487;BME280;7845;53.698;10.078;2023-06-10T00:24:00;101607.13;;;19.25;100.00
15487;BME280;7845;53.698;10.078;2023-06-10T00:26:28;101608.31;;;19.15;100.00
15487;BME280;7845;53.698;10.078;2023-06-10T00:28:53;101604.78;;;19.15;100.00
15487;BME280;7845;53.698;10.078;2023-06-10T00:31:18;101604.25;;;19.04;100.00
15487;BME280;7845;53.698;10.078;2023-06-10T00:33:44;101608.38;;;18.83;100.00
15487;BME280;7845;53.698;10.078;2023-06-10T00:36:10;101605.88;;;18.78;100.00
15487;BME280;7845;53.698;10.078;2023-06-10T00:38:35;101602.47;;;18.73;100.00
15487;BME280;7845;53.698;10.078;2023-06-10T00:41:02;101607.81;;;18.72;100.00
15487;BME280;7845;53.698;10.078;2023-06-10T00:43:27;101607.91;;;18.69;100.00
15487;BME280;7845;53.698;10.078;2023-06-10T00:45:53;101611.44;;;18.34;100.00
15487;BME280;7845;53.698;10.078;2023-06-10T00:48:18;101606.50;;;18.56;100.00
15487;BME280;7845;53.698;10.078;2023-06-10T00:50:46;101614.63;;;18.47;100.00
15487;BME280;7845;53.698;10.078;2023-06-10T00:53:12;101617.09;;;18.20;100.00
15487;BME280;7845;53.698;10.078;2023-06-10T00:55:40;101613.28;;;18.66;100.00
15487;BME280;7845;53.698;10.078;2023-06-10T00:58:27;101617.88;;;18.59;100.00
15487;BME280;7845;53.698;10.078;2023-06-10T01:00:57;101619.72;;;18.56;100.00
15487;BME280;7845;53.698;10.078;2023-06-10T01:03:25;101615.53;;;18.46;100.00
15487;BME280;7845;53.698;10.078;2023-06-10T01:06:06;101618.47;;;18.37;100.00
15487;BME280;7845;53.698;10.078;2023-06-10T01:08:46;101605.69;;;18.54;100.00
15487;BME280;7845;53.698;10.078;2023-06-10T01:11:21;101612.47;;;18.30;100.00
15487;BME280;7845;53.698;10.078;2023-06-10T01:13:50;101614.97;;;18.35;100.00
15487;BME280;7845;53.698;10.078;2023-06-10T01:16:17;101609.84;;;18.29;100.00
15487;BME280;7845;53.698;10.078;2023-06-10T01:18:44;101615.25;;;18.24;100.00
15487;BME280;7845;53.698;10.078;2023-06-10T01:21:15;101621.03;;;18.04;100.00
15487;BME280;7845;53.698;10.078;2023-06-10T01:23:41;101625.19;;;18.14;100.00
15487;BME280;7845;53.698;10.078;2023-06-10T01:26:10;101613.41;;;18.28;100.00
15487;BME280;7845;53.698;10.078;2023-06-10T01:28:52;101621.94;;;18.37;100.00
15487;BME280;7845;53.698;10.078;2023-06-10T01:31:44;101621.19;;;18.34;100.00
15487;BME280;7845;53.698;10.078;2023-06-10T01:34:14;101625.47;;;18.38;100.00
15487;BME280;7845;53.698;10.078;2023-06-10T01:36:47;101629.19;;;18.31;100.00
15487;BME280;7845;53.698;10.078;2023-06-10T01:39:16;101628.16;;;18.36;100.00
15487;BME280;7845;53.698;10.078;2023-06-10T01:41:42;101627.38;;;18.31;100.00
15487;BME280;7845;53.698;10.078;2023-06-10T01:44:10;101627.47;;;18.28;100.00
15487;BME280;7845;53.698;10.078;2023-06-10T01:46:36;101633.53;;;18.33;100.00
15487;BME280;7845;53.698;10.078;2023-06-10T01:49:05;101624.72;;;18.33;100.00
15487;BME280;7845;53.698;10.078;2023-06-10T01:51:30;101631.94;;;18.26;100.00
15487;BME280;7845;53.698;10.078;2023-06-10T01:53:56;101628.00;;;18.42;100.00
15487;BME280;7845;53.698;10.078;2023-06-10T01:56:22;101625.75;;;18.27;100.00
15487;BME280;7845;53.698;10.078;2023-06-10T01:58:48;101626.84;;;18.18;100.00
15487;BME280;7845;53.698;10.078;2023-06-10T02:01:14;101622.75;;;18.07;100.00
15487;BME280;7845;53.698;10.078;2023-06-10T02:03:39;101616.53;;;18.08;100.00
15487;BME280;7845;53.698;10.078;2023-06-10T02:06:05;101621.09;;;18.03;100.00
15487;BME280;7845;53.698;10.078;2023-06-10T02:08:33;101624.59;;;18.03;100.00
15487;BME280;7845;53.698;10.078;2023-06-10T02:10:58;101623.75;;;18.01;100.00
15487;BME280;7845;53.698;10.078;2023-06-10T02:13:23;101620.00;;;18.10;100.00
15487;BME280;7845;53.698;10.078;2023-06-10T02:15:48;101614.81;;;18.07;100.00
15487;BME280;7845;53.698;10.078;2023-06-10T02:18:14;101621.81;;;18.09;100.00
15487;BME280;7845;53.698;10.078;2023-06-10T02:20:39;101618.22;;;18.12;100.00
15487;BME280;7845;53.698;10.078;2023-06-10T02:23:05;101610.28;;;18.12;100.00
15487;BME280;7845;53.698;10.078;2023-06-10T02:25:30;101613.75;;;18.14;100.00
15487;BME280;7845;53.698;10.078;2023-06-10T02:27:56;101613.94;;;18.06;100.00
15487;BME280;7845;53.698;10.078;2023-06-10T02:30:21;101615.19;;;17.92;100.00
15487;BME280;7845;53.698;10.078;2023-06-10T02:32:46;101616.03;;;17.92;100.00
15487;BME280;7845;53.698;10.078;2023-06-10T02:35:13;101618.06;;;17.83;100.00
15487;BME280;7845;53.698;10.078;2023-06-10T02:37:38;101618.69;;;17.92;100.00
15487;BME280;7845;53.698;10.078;2023-06-10T02:40:04;101620.34;;;17.96;100.00
15487;BME280;7845;53.698;10.078;2023-06-10T02:42:31;101618.81;;;17.88;100.00
15487;BME280;7845;53.698;10.078;2023-06-10T02:44:56;101622.47;;;17.82;100.00
15487;BME280;7845;53.698;10.078;2023-06-10T02:47:23;101615.34;;;17.86;100.00
15487;BME280;7845;53.698;10.078;2023-06-10T02:49:50;101618.66;;;17.57;100.00
15487;BME280;7845;53.698;10.078;2023-06-10T02:52:15;101611.84;;;17.45;100.00
15487;BME280;7845;53.698;10.078;2023-06-10T02:54:40;101626.63;;;17.54;100.00
15487;BME280;7845;53.698;10.078;2023-06-10T02:57:07;101624.09;;;17.49;100.00
15487;BME280;7845;53.698;10.078;2023-06-10T02:59:32;101626.88;;;17.42;100.00
15487;BME280;7845;53.698;10.078;2023-06-10T03:01:58;101627.94;;;17.35;100.00
15487;BME280;7845;53.698;10.078;2023-06-10T03:04:27;101629.91;;;17.24;100.00
15487;BME280;7845;53.698;10.078;2023-06-10T03:06:55;101624.25;;;17.42;100.00
15487;BME280;7845;53.698;10.078;2023-06-10T03:09:20;101628.59;;;17.44;100.00
15487;BME280;7845;53.698;10.078;2023-06-10T03:11:46;101618.63;;;17.58;100.00
15487;BME280;7845;53.698;10.078;2023-06-10T03:14:12;101629.44;;;17.46;100.00
15487;BME280;7845;53.698;10.078;2023-06-10T03:16:37;101627.75;;;17.42;100.00
15487;BME280;7845;53.698;10.078;2023-06-10T03:19:09;101625.81;;;17.50;100.00
15487;BME280;7845;53.698;10.078;2023-06-10T03:21:36;101634.59;;;17.52;100.00
15487;BME280;7845;53.698;10.078;2023-06-10T03:24:03;101629.13;;;17.61;100.00
15487;BME280;7845;53.698;10.078;2023-06-10T03:26:28;101647.22;;;17.78;100.00
15487;BME280;7845;53.698;10.078;2023-06-10T03:28:53;101637.16;;;17.94;100.00
15487;BME280;7845;53.698;10.078;2023-06-10T03:31:19;101641.63;;;17.90;100.00
15487;BME280;7845;53.698;10.078;2023-06-10T03:33:47;101630.97;;;17.95;100.00
15487;BME280;7845;53.698;10.078;2023-06-10T03:36:13;101637.03;;;17.98;100.00
15487;BME280;7845;53.698;10.078;2023-06-10T03:38:38;101637.09;;;17.97;100.00
15487;BME280;7845;53.698;10.078;2023-06-10T03:41:03;101640.28;;;18.09;100.00
15487;BME280;7845;53.698;10.078;2023-06-10T03:43:30;101636.03;;;18.04;100.00
15487;BME280;7845;53.698;10.078;2023-06-10T03:45:59;101635.31;;;17.97;100.00
15487;BME280;7845;53.698;10.078;2023-06-10T03:48:24;101635.91;;;18.08;100.00
15487;BME280;7845;53.698;10.078;2023-06-10T03:50:49;101635.84;;;18.10;100.00
15487;BME280;7845;53.698;10.078;2023-06-10T03:53:18;101626.50;;;17.97;100.00
15487;BME280;7845;53.698;10.078;2023-06-10T03:55:43;101627.75;;;18.17;100.00
15487;BME280;7845;53.698;10.078;2023-06-10T03:58:08;101630.03;;;17.97;100.00
15487;BME280;7845;53.698;10.078;2023-06-10T04:00:34;101632.16;;;18.18;100.00
15487;BME280;7845;53.698;10.078;2023-06-10T04:03:09;101636.56;;;18.18;100.00
15487;BME280;7845;53.698;10.078;2023-06-10T04:05:39;101639.00;;;18.25;100.00
15487;BME280;7845;53.698;10.078;2023-06-10T04:08:07;101638.09;;;18.27;100.00
15487;BME280;7845;53.698;10.078;2023-06-10T04:10:33;101646.81;;;18.30;100.00
15487;BME280;7845;53.698;10.078;2023-06-10T04:13:00;101640.94;;;18.54;100.00
15487;BME280;7845;53.698;10.078;2023-06-10T04:15:26;101643.00;;;18.75;100.00
15487;BME280;7845;53.698;10.078;2023-06-10T04:17:52;101643.03;;;19.05;100.00
15487;BME280;7845;53.698;10.078;2023-06-10T04:20:18;101639.06;;;19.19;100.00
15487;BME280;7845;53.698;10.078;2023-06-10T04:22:47;101637.53;;;19.42;100.00
15487;BME280;7845;53.698;10.078;2023-06-10T04:25:13;101632.84;;;19.51;100.00
15487;BME280;7845;53.698;10.078;2023-06-10T04:27:39;101631.97;;;19.78;100.00
15487;BME280;7845;53.698;10.078;2023-06-10T04:30:06;101629.72;;;19.93;100.00
15487;BME280;7845;53.698;10.078;2023-06-10T04:32:31;101629.41;;;20.03;100.00
15487;BME280;7845;53.698;10.078;2023-06-10T04:34:57;101629.19;;;20.09;100.00
15487;BME280;7845;53.698;10.078;2023-06-10T04:37:24;101631.09;;;19.78;100.00
15487;BME280;7845;53.698;10.078;2023-06-10T04:39:51;101630.19;;;20.07;100.00
15487;BME280;7845;53.698;10.078;2023-06-10T04:42:19;101636.75;;;20.21;100.00
15487;BME280;7845;53.698;10.078;2023-06-10T04:44:46;101637.38;;;20.02;100.00
15487;BME280;7845;53.698;10.078;2023-06-10T04:47:11;101640.94;;;20.28;100.00
15487;BME280;7845;53.698;10.078;2023-06-10T04:49:38;101638.28;;;20.55;100.00
15487;BME280;7845;53.698;10.078;2023-06-10T04:52:04;101640.56;;;20.88;100.00
15487;BME280;7845;53.698;10.078;2023-06-10T04:54:30;101634.69;;;21.04;100.00
15487;BME280;7845;53.698;10.078;2023-06-10T04:56:55;101627.09;;;21.18;100.00
15487;BME280;7845;53.698;10.078;2023-06-10T04:59:22;101627.13;;;21.84;100.00
15487;BME280;7845;53.698;10.078;2023-06-10T05:01:47;101625.13;;;22.33;100.00
15487;BME280;7845;53.698;10.078;2023-06-10T05:04:12;101631.78;;;21.34;100.00
15487;BME280;7845;53.698;10.078;2023-06-10T05:06:37;101613.19;;;23.02;100.00
15487;BME280;7845;53.698;10.078;2023-06-10T05:09:03;101600.47;;;24.35;100.00
15487;BME280;7845;53.698;10.078;2023-06-10T05:11:28;101599.09;;;24.28;100.00
15487;BME280;7845;53.698;10.078;2023-06-10T05:13:53;101616.69;;;22.64;100.00
15487;BME280;7845;53.698;10.078;2023-06-10T05:16:19;101638.03;;;22.00;100.00
15487;BME280;7845;53.698;10.078;2023-06-10T05:18:44;101636.22;;;21.79;100.00
15487;BME280;7845;53.698;10.078;2023-06-10T05:21:10;101645.63;;;21.87;100.00
15487;BME280;7845;53.698;10.078;2023-06-10T05:23:35;101649.16;;;21.43;100.00
15487;BME280;7845;53.698;10.078;2023-06-10T05:26:00;101649.97;;;20.74;100.00
15487;BME280;7845;53.698;10.078;2023-06-10T05:28:26;101655.00;;;20.81;100.00
15487;BME280;7845;53.698;10.078;2023-06-10T05:30:51;101646.53;;;20.70;100.00
15487;BME280;7845;53.698;10.078;2023-06-10T05:33:17;101649.13;;;20.47;100.00
15487;BME280;7845;53.698;10.078;2023-06-10T05:35:42;101644.44;;;20.80;100.00
15487;BME280;7845;53.698;10.078;2023-06-10T05:38:07;101646.50;;;20.72;100.00
15487;BME280;7845;53.698;10.078;2023-06-10T05:40:34;101643.84;;;20.72;100.00
15487;BME280;7845;53.698;10.078;2023-06-10T05:42:59;101638.06;;;20.61;100.00
15487;BME280;7845;53.698;10.078;2023-06-10T05:45:24;101649.31;;;20.67;100.00
15487;BME280;7845;53.698;10.078;2023-06-10T05:47:49;101640.31;;;20.71;100.00
15487;BME280;7845;53.698;10.078;2023-06-10T05:50:15;101640.78;;;20.33;100.00
15487;BME280;7845;53.698;10.078;2023-06-10T05:52:42;101636.22;;;20.87;100.00
15487;BME280;7845;53.698;10.078;2023-06-10T05:55:08;101640.50;;;20.67;100.00
15487;BME280;7845;53.698;10.078;2023-06-10T05:57:33;101626.75;;;20.79;100.00
15487;BME280;7845;53.698;10.078;2023-06-10T05:59:59;101636.00;;;20.69;100.00
15487;BME280;7845;53.698;10.078;2023-06-10T06:02:24;101626.47;;;20.63;100.00
15487;BME280;7845;53.698;10.078;2023-06-10T06:04:50;101627.72;;;21.01;100.00
15487;BME280;7845;53.698;10.078;2023-06-10T06:07:15;101626.03;;;21.23;100.00
15487;BME280;7845;53.698;10.078;2023-06-10T06:09:42;101628.97;;;20.91;100.00
15487;BME280;7845;53.698;10.078;2023-06-10T06:12:08;101621.97;;;20.65;100.00
15487;BME280;7845;53.698;10.078;2023-06-10T06:14:37;101619.97;;;20.72;100.00
15487;BME280;7845;53.698;10.078;2023-06-10T06:17:03;101621.16;;;20.63;100.00
15487;BME280;7845;53.698;10.078;2023-06-10T06:19:28;101612.59;;;21.03;100.00
15487;BME280;7845;53.698;10.078;2023-06-10T06:21:54;101613.13;;;20.89;100.00
15487;BME280;7845;53.698;10.078;2023-06-10T06:24:20;101610.88;;;21.02;100.00
15487;BME280;7845;53.698;10.078;2023-06-10T06:26:46;101612.03;;;21.41;100.00
15487;BME280;7845;53.698;10.078;2023-06-10T06:29:11;101614.81;;;21.38;100.00
15487;BME280;7845;53.698;10.078;2023-06-10T06:31:37;101609.63;;;21.57;100.00
15487;BME280;7845;53.698;10.078;2023-06-10T06:34:04;101608.31;;;21.45;100.00
15487;BME280;7845;53.698;10.078;2023-06-10T06:36:30;101615.44;;;21.45;100.00
15487;BME280;7845;53.698;10.078;2023-06-10T06:38:55;101604.16;;;21.62;100.00
15487;BME280;7845;53.698;10.078;2023-06-10T06:41:21;101616.69;;;21.58;100.00
15487;BME280;7845;53.698;10.078;2023-06-10T06:43:47;101614.34;;;21.27;100.00
15487;BME280;7845;53.698;10.078;2023-06-10T06:46:12;101621.50;;;21.48;100.00
15487;BME280;7845;53.698;10.078;2023-06-10T06:48:37;101623.03;;;21.54;100.00
15487;BME280;7845;53.698;10.078;2023-06-10T06:51:03;101617.44;;;21.62;100.00
15487;BME280;7845;53.698;10.078;2023-06-10T06:53:28;101621.31;;;21.53;100.00
15487;BME280;7845;53.698;10.078;2023-06-10T06:55:53;101623.03;;;21.54;100.00
15487;BME280;7845;53.698;10.078;2023-06-10T06:58:19;101630.84;;;21.59;100.00
15487;BME280;7845;53.698;10.078;2023-06-10T07:00:44;101630.72;;;21.17;100.00
15487;BME280;7845;53.698;10.078;2023-06-10T07:03:10;101636.44;;;21.29;100.00
15487;BME280;7845;53.698;10.078;2023-06-10T07:05:35;101636.03;;;21.17;100.00
15487;BME280;7845;53.698;10.078;2023-06-10T07:08:01;101629.91;;;21.60;100.00
15487;BME280;7845;53.698;10.078;2023-06-10T07:10:26;101635.31;;;21.35;100.00
15487;BME280;7845;53.698;10.078;2023-06-10T07:12:52;101633.53;;;21.57;100.00
15487;BME280;7845;53.698;10.078;2023-06-10T07:15:18;101632.44;;;21.84;100.00
15487;BME280;7845;53.698;10.078;2023-06-10T07:17:43;101630.00;;;22.01;100.00
15487;BME280;7845;53.698;10.078;2023-06-10T07:20:09;101629.47;;;22.14;100.00
15487;BME280;7845;53.698;10.078;2023-06-10T07:22:36;101634.84;;;22.34;100.00
15487;BME280;7845;53.698;10.078;2023-06-10T07:25:04;101639.44;;;21.87;100.00
15487;BME280;7845;53.698;10.078;2023-06-10T07:27:29;101636.34;;;22.19;100.00
15487;BME280;7845;53.698;10.078;2023-06-10T07:29:56;101643.53;;;22.17;100.00
15487;BME280;7845;53.698;10.078;2023-06-10T07:32:23;101642.22;;;22.27;100.00
15487;BME280;7845;53.698;10.078;2023-06-10T07:34:49;101647.63;;;22.46;100.00
15487;BME280;7845;53.698;10.078;2023-06-10T07:37:15;101651.19;;;21.81;100.00
15487;BME280;7845;53.698;10.078;2023-06-10T07:39:40;101651.53;;;21.72;100.00
15487;BME280;7845;53.698;10.078;2023-06-10T07:42:06;101643.25;;;22.23;100.00
15487;BME280;7845;53.698;10.078;2023-06-10T07:44:33;101641.00;;;22.14;100.00
15487;BME280;7845;53.698;10.078;2023-06-10T07:46:58;101643.84;;;22.10;100.00
15487;BME280;7845;53.698;10.078;2023-06-10T07:49:24;101644.03;;;22.05;100.00
15487;BME280;7845;53.698;10.078;2023-06-10T07:51:50;101644.88;;;22.27;100.00
15487;BME280;7845;53.698;10.078;2023-06-10T07:54:16;101637.94;;;22.23;100.00
15487;BME280;7845;53.698;10.078;2023-06-10T07:56:41;101638.59;;;22.08;100.00
15487;BME280;7845;53.698;10.078;2023-06-10T07:59:07;101631.91;;;22.60;100.00
15487;BME280;7845;53.698;10.078;2023-06-10T08:01:32;101622.06;;;22.62;100.00
15487;BME280;7845;53.698;10.078;2023-06-10T08:03:58;101636.13;;;22.66;100.00
15487;BME280;7845;53.698;10.078;2023-06-10T08:06:23;101626.41;;;22.85;100.00
15487;BME280;7845;53.698;10.078;2023-06-10T08:08:48;101620.00;;;22.89;100.00
15487;BME280;7845;53.698;10.078;2023-06-10T08:11:14;101631.16;;;22.78;100.00
15487;BME280;7845;53.698;10.078;2023-06-10T08:13:39;101625.00;;;22.76;100.00
15487;BME280;7845;53.698;10.078;2023-06-10T08:16:05;101632.44;;;22.88;100.00
15487;BME280;7845;53.698;10.078;2023-06-10T08:18:32;101630.88;;;22.84;100.00
15487;BME280;7845;53.698;10.078;2023-06-10T08:20:57;101632.00;;;23.18;100.00
15487;BME280;7845;53.698;10.078;2023-06-10T08:23:22;101632.06;;;22.77;100.00
15487;BME280;7845;53.698;10.078;2023-06-10T08:25:48;101636.97;;;22.86;100.00
15487;BME280;7845;53.698;10.078;2023-06-10T08:28:14;101620.69;;;23.12;100.00
15487;BME280;7845;53.698;10.078;2023-06-10T08:30:40;101630.88;;;22.84;100.00
15487;BME280;7845;53.698;10.078;2023-06-10T08:33:05;101632.59;;;23.43;100.00
15487;BME280;7845;53.698;10.078;2023-06-10T08:35:31;101636.81;;;23.28;100.00
15487;BME280;7845;53.698;10.078;2023-06-10T08:37:57;101635.50;;;23.18;100.00
15487;BME280;7845;53.698;10.078;2023-06-10T08:40:23;101637.69;;;23.29;100.00
15487;BME280;7845;53.698;10.078;2023-06-10T08:43:04;101643.25;;;23.43;100.00
15487;BME280;7845;53.698;10.078;2023-06-10T08:45:31;101643.75;;;23.51;100.00
15487;BME280;7845;53.698;10.078;2023-06-10T08:47:57;101646.38;;;23.71;100.00
15487;BME280;7845;53.698;10.078;2023-06-10T08:50:23;101643.31;;;23.60;100.00
15487;BME280;7845;53.698;10.078;2023-06-10T08:52:54;101652.44;;;23.36;100.00
15487;BME280;7845;53.698;10.078;2023-06-10T08:55:32;101647.00;;;23.76;100.00
15487;BME280;7845;53.698;10.078;2023-06-10T08:58:08;101633.66;;;23.76;100.00
15487;BME280;7845;53.698;10.078;2023-06-10T09:00:33;101638.50;;;24.04;100.00
15487;BME280;7845;53.698;10.078;2023-06-10T09:02:59;101632.22;;;24.05;100.00
15487;BME280;7845;53.698;10.078;2023-06-10T09:05:26;101639.78;;;23.78;100.00
15487;BME280;7845;53.698;10.078;2023-06-10T09:07:52;101632.19;;;23.88;100.00
15487;BME280;7845;53.698;10.078;2023-06-10T09:10:19;101640.44;;;23.64;100.00
15487;BME280;7845;53.698;10.078;2023-06-10T09:12:44;101631.44;;;23.67;100.00
15487;BME280;7845;53.698;10.078;2023-06-10T09:15:10;101626.28;;;23.81;100.00
15487;BME280;7845;53.698;10.078;2023-06-10T09:17:37;101633.06;;;23.88;100.00
15487;BME280;7845;53.698;10.078;2023-06-10T09:20:06;101632.19;;;23.88;100.00
15487;BME280;7845;53.698;10.078;2023-06-10T09:22:33;101639.63;;;23.81;100.00
15487;BME280;7845;53.698;10.078;2023-06-10T09:25:06;101644.47;;;23.73;100.00
15487;BME280;7845;53.698;10.078;2023-06-10T09:27:53;101631.69;;;23.98;100.00
15487;BME280;7845;53.698;10.078;2023-06-10T09:30:27;101636.19;;;24.15;100.00
15487;BME280;7845;53.698;10.078;2023-06-10T09:32:57;101637.47;;;24.25;100.00
15487;BME280;7845;53.698;10.078;2023-06-10T09:35:24;101639.72;;;23.61;100.00
15487;BME280;7845;53.698;10.078;2023-06-10T09:37:55;101642.72;;;24.08;100.00
15487;BME280;7845;53.698;10.078;2023-06-10T09:40:20;101640.13;;;23.89;100.00
15487;BME280;7845;53.698;10.078;2023-06-10T09:42:46;101637.78;;;24.36;100.00
15487;BME280;7845;53.698;10.078;2023-06-10T09:45:15;101625.44;;;24.51;100.00
15487;BME280;7845;53.698;10.078;2023-06-10T09:47:41;101642.47;;;24.65;100.00
15487;BME280;7845;53.698;10.078;2023-06-10T09:50:07;101633.50;;;24.49;100.00
15487;BME280;7845;53.698;10.078;2023-06-10T09:52:33;101631.09;;;24.45;100.00
15487;BME280;7845;53.698;10.078;2023-06-10T09:55:00;101636.13;;;24.34;100.00
15487;BME280;7845;53.698;10.078;2023-06-10T09:57:30;101634.22;;;24.53;100.00
15487;BME280;7845;53.698;10.078;2023-06-10T09:59:58;101628.91;;;24.70;100.00
15487;BME280;7845;53.698;10.078;2023-06-10T10:02:23;101627.22;;;24.67;100.00
15487;BME280;7845;53.698;10.078;2023-06-10T10:04:50;101640.88;;;24.78;100.00
15487;BME280;7845;53.698;10.078;2023-06-10T10:07:15;101643.44;;;24.30;100.00
15487;BME280;7845;53.698;10.078;2023-06-10T10:09:41;101638.91;;;24.99;100.00
15487;BME280;7845;53.698;10.078;2023-06-10T10:12:14;101643.09;;;25.36;100.00
15487;BME280;7845;53.698;10.078;2023-06-10T10:14:47;101641.31;;;25.04;100.00
15487;BME280;7845;53.698;10.078;2023-06-10T10:17:15;101644.16;;;25.01;100.00
15487;BME280;7845;53.698;10.078;2023-06-10T10:19:48;101644.38;;;24.81;100.00
15487;BME280;7845;53.698;10.078;2023-06-10T10:22:26;101646.66;;;25.04;100.00
15487;BME280;7845;53.698;10.078;2023-06-10T10:25:01;101633.34;;;25.19;100.00
15487;BME280;7845;53.698;10.078;2023-06-10T10:27:31;101641.41;;;25.35;100.00
15487;BME280;7845;53.698;10.078;2023-06-10T10:29:58;101647.09;;;24.96;100.00
15487;BME280;7845;53.698;10.078;2023-06-10T10:32:45;101638.78;;;25.33;100.00
15487;BME280;7845;53.698;10.078;2023-06-10T10:35:19;101632.63;;;25.64;100.00
15487;BME280;7845;53.698;10.078;2023-06-10T10:37:48;101634.78;;;25.58;100.00
15487;BME280;7845;53.698;10.078;2023-06-10T10:40:14;101636.53;;;25.59;100.00
15487;BME280;7845;53.698;10.078;2023-06-10T10:42:41;101629.44;;;25.73;100.00
15487;BME280;7845;53.698;10.078;2023-06-10T10:45:08;101625.38;;;25.66;100.00
15487;BME280;7845;53.698;10.078;2023-06-10T10:47:36;101629.59;;;25.55;100.00
15487;BME280;7845;53.698;10.078;2023-06-10T10:50:13;101640.00;;;25.28;100.00
15487;BME280;7845;53.698;10.078;2023-06-10T10:52:56;101642.56;;;25.62;100.00
15487;BME280;7845;53.698;10.078;2023-06-10T10:55:24;101633.16;;;25.71;100.00
15487;BME280;7845;53.698;10.078;2023-06-10T10:57:55;101627.63;;;25.74;100.00
15487;BME280;7845;53.698;10.078;2023-06-10T11:00:33;101630.81;;;25.65;100.00
15487;BME280;7845;53.698;10.078;2023-06-10T11:03:13;101632.28;;;25.70;100.00
15487;BME280;7845;53.698;10.078;2023-06-10T11:05:42;101621.16;;;26.08;100.00
15487;BME280;7845;53.698;10.078;2023-06-10T11:08:15;101620.75;;;26.00;100.00
15487;BME280;7845;53.698;10.078;2023-06-10T11:10:59;101622.56;;;25.99;100.00
15487;BME280;7845;53.698;10.078;2023-06-10T11:13:26;101617.72;;;26.06;100.00
15487;BME280;7845;53.698;10.078;2023-06-10T11:15:57;101620.91;;;26.28;100.00
15487;BME280;7845;53.698;10.078;2023-06-10T11:21:00;101623.94;;;26.22;100.00
15487;BME280;7845;53.698;10.078;2023-06-10T11:25:51;101609.56;;;26.53;100.00
15487;BME280;7845;53.698;10.078;2023-06-10T11:28:19;101613.53;;;26.75;100.00
15487;BME280;7845;53.698;10.078;2023-06-10T11:30:56;101615.34;;;26.75;100.00
15487;BME280;7845;53.698;10.078;2023-06-10T11:33:24;101614.97;;;26.67;100.00
15487;BME280;7845;53.698;10.078;2023-06-10T11:35:50;101593.19;;;26.87;100.00
15487;BME280;7845;53.698;10.078;2023-06-10T11:38:15;101602.63;;;27.21;100.00
15487;BME280;7845;53.698;10.078;2023-06-10T11:40:49;101601.41;;;26.98;100.00
15487;BME280;7845;53.698;10.078;2023-06-10T11:43:16;101594.50;;;27.08;100.00
15487;BME280;7845;53.698;10.078;2023-06-10T11:45:42;101596.06;;;27.39;99.17
15487;BME280;7845;53.698;10.078;2023-06-10T11:48:09;101595.63;;;27.32;98.74
15487;BME280;7845;53.698;10.078;2023-06-10T11:50:34;101584.56;;;27.65;97.23
15487;BME280;7845;53.698;10.078;2023-06-10T11:53:03;101583.06;;;27.74;95.84
15487;BME280;7845;53.698;10.078;2023-06-10T11:55:46;101582.75;;;27.66;94.63
15487;BME280;7845;53.698;10.078;2023-06-10T11:58:17;101583.81;;;27.76;94.25
15487;BME280;7845;53.698;10.078;2023-06-10T12:00:54;101595.16;;;27.67;96.99
15487;BME280;7845;53.698;10.078;2023-06-10T12:03:23;101580.13;;;27.64;92.78
15487;BME280;7845;53.698;10.078;2023-06-10T12:06:05;101584.59;;;27.37;95.49
15487;BME280;7845;53.698;10.078;2023-06-10T12:08:32;101583.25;;;28.24;92.75
15487;BME280;7845;53.698;10.078;2023-06-10T12:10:58;101598.91;;;27.91;93.70
15487;BME280;7845;53.698;10.078;2023-06-10T12:13:29;101581.97;;;28.03;91.67
15487;BME280;7845;53.698;10.078;2023-06-10T12:15:54;101579.50;;;28.39;91.29
15487;BME280;7845;53.698;10.078;2023-06-10T12:18:21;101587.50;;;28.14;90.71
15487;BME280;7845;53.698;10.078;2023-06-10T12:20:46;101573.38;;;28.50;89.58
15487;BME280;7845;53.698;10.078;2023-06-10T12:23:14;101580.06;;;28.05;91.55
15487;BME280;7845;53.698;10.078;2023-06-10T12:25:39;101580.69;;;28.48;93.11
15487;BME280;7845;53.698;10.078;2023-06-10T12:28:14;101578.41;;;28.29;88.85
15487;BME280;7845;53.698;10.078;2023-06-10T12:30:40;101570.59;;;28.89;88.02
15487;BME280;7845;53.698;10.078;2023-06-10T12:33:15;101568.44;;;28.44;89.72
15487;BME280;7845;53.698;10.078;2023-06-10T12:35:47;101561.25;;;28.57;90.47
15487;BME280;7845;53.698;10.078;2023-06-10T12:38:13;101555.34;;;28.65;88.23
15487;BME280;7845;53.698;10.078;2023-06-10T12:40:39;101557.94;;;28.66;88.37
15487;BME280;7845;53.698;10.078;2023-06-10T12:43:10;101564.88;;;28.31;88.26
15487;BME280;7845;53.698;10.078;2023-06-10T12:45:37;101549.41;;;28.60;88.02
15487;BME280;7845;53.698;10.078;2023-06-10T12:48:16;101551.91;;;28.75;88.97